sensor_id;sensor_type;location;lat;lon;timestamp;pressure;altitude;pressure_sealevel;temperature;humidity
29909;BME280;36247;51.952;6.146;2022-10-26T00:00:03;101341.28;;;8.83;100.00
29909;BME280;36247;51.952;6.146;2022-10-26T00:02:37;101341.25;;;8.82;100.00
29909;BME280;36247;51.952;6.146;2022-10-26T00:05:03;101346.34;;;8.76;100.00
29909;BME280;36247;51.952;6.146;2022-10-26T00:07:29;101347.00;;;8.69;100.00
29909;BME280;36247;51.952;6.146;2022-10-26T00:09:54;101333.00;;;8.71;100.00
29909;BME280;36247;51.952;6.146;2022-10-26T00:12:20;101340.88;;;8.70;100.00
29909;BME280;36247;51.952;6.146;2022-10-26T00:14:46;101327.78;;;8.73;100.00
29909;BME280;36247;51.952;6.146;2022-10-26T00:17:11;101326.94;;;8.74;100.00
29909;BME280;36247;51.952;6.146;2022-10-26T00:19:37;101310.03;;;8.69;100.00
29909;BME280;36247;51.952;6.146;2022-10-26T00:22:02;101313.41;;;8.63;100.00
29909;BME280;36247;51.952;6.146;2022-10-26T00:24:28;101306.56;;;8.70;100.00
29909;BME280;36247;51.952;6.146;2022-10-26T00:26:53;101317.19;;;8.73;100.00
29909;BME280;36247;51.952;6.146;2022-10-26T00:29:19;101307.72;;;8.79;100.00
29909;BME280;36247;51.952;6.146;2022-10-26T00:31:44;101310.25;;;8.75;100.00
29909;BME280;36247;51.952;6.146;2022-10-26T00:34:10;101304.50;;;8.59;100.00
29909;BME280;36247;51.952;6.146;2022-10-26T00:36:36;101312.84;;;8.73;100.00
29909;BME280;36247;51.952;6.146;2022-10-26T00:39:02;101304.97;;;8.75;100.00
29909;BME280;36247;51.952;6.146;2022-10-26T00:41:30;101305.84;;;8.75;100.00
29909;BME280;36247;51.952;6.146;2022-10-26T00:43:56;101309.50;;;8.80;100.00
29909;BME280;36247;51.952;6.146;2022-10-26T00:46:34;101315.31;;;8.99;100.00
29909;BME280;36247;51.952;6.146;2022-10-26T00:49:04;101310.00;;;8.97;100.00
29909;BME280;36247;51.952;6.146;2022-10-26T00:51:40;101303.03;;;9.01;100.00
29909;BME280;36247;51.952;6.146;2022-10-26T00:54:10;101306.91;;;9.14;100.00
29909;BME280;36247;51.952;6.146;2022-10-26T00:56:38;101306.91;;;9.14;100.00
29909;BME280;36247;51.952;6.146;2022-10-26T00:59:07;101302.47;;;9.13;100.00
29909;BME280;36247;51.952;6.146;2022-10-26T01:01:35;101303.91;;;9.02;100.00
29909;BME280;36247;51.952;6.146;2022-10-26T01:04:02;101297.03;;;9.07;100.00
29909;BME280;36247;51.952;6.146;2022-10-26T01:06:29;101304.31;;;9.15;100.00
29909;BME280;36247;51.952;6.146;2022-10-26T01:08:55;101294.59;;;9.14;100.00
29909;BME280;36247;51.952;6.146;2022-10-26T01:11:21;101301.75;;;9.18;100.00
29909;BME280;36247;51.952;6.146;2022-10-26T01:13:47;101296.47;;;9.18;100.00
29909;BME280;36247;51.952;6.146;2022-10-26T01:19:16;101285.66;;;9.09;100.00
29909;BME280;36247;51.952;6.146;2022-10-26T01:27:31;101280.78;;;9.26;100.00
29909;BME280;36247;51.952;6.146;2022-10-26T01:38:25;101253.91;;;9.43;100.00
29909;BME280;36247;51.952;6.146;2022-10-26T01:41:12;101251.03;;;9.33;100.00
29909;BME280;36247;51.952;6.146;2022-10-26T01:43:45;101244.44;;;9.17;100.00
29909;BME280;36247;51.952;6.146;2022-10-26T01:46:15;101237.50;;;9.21;100.00
29909;BME280;36247;51.952;6.146;2022-10-26T01:48:43;101243.13;;;9.35;100.00
29909;BME280;36247;51.952;6.146;2022-10-26T01:51:10;101243.31;;;9.43;100.00
29909;BME280;36247;51.952;6.146;2022-10-26T01:53:44;101242.75;;;9.56;100.00
29909;BME280;36247;51.952;6.146;2022-10-26T01:56:21;101232.06;;;9.51;100.00
29909;BME280;36247;51.952;6.146;2022-10-26T02:01:35;101217.41;;;9.29;100.00
29909;BME280;36247;51.952;6.146;2022-10-26T02:15:27;101243.44;;;9.47;100.00
29909;BME280;36247;51.952;6.146;2022-10-26T02:17:59;101241.66;;;9.48;100.00
29909;BME280;36247;51.952;6.146;2022-10-26T02:20:35;101235.50;;;9.47;100.00
29909;BME280;36247;51.952;6.146;2022-10-26T02:23:06;101238.00;;;9.41;100.00
29909;BME280;36247;51.952;6.146;2022-10-26T02:25:35;101233.81;;;9.49;100.00
29909;BME280;36247;51.952;6.146;2022-10-26T02:28:09;101232.41;;;9.65;100.00
29909;BME280;36247;51.952;6.146;2022-10-26T02:30:36;101228.84;;;9.63;100.00
29909;BME280;36247;51.952;6.146;2022-10-26T02:33:04;101231.47;;;9.63;100.00
29909;BME280;36247;51.952;6.146;2022-10-26T02:35:34;101234.13;;;9.63;100.00
29909;BME280;36247;51.952;6.146;2022-10-26T02:38:05;101226.25;;;9.66;100.00
29909;BME280;36247;51.952;6.146;2022-10-26T02:40:33;101227.63;;;9.87;100.00
29909;BME280;36247;51.952;6.146;2022-10-26T02:43:09;101212.59;;;9.86;100.00
29909;BME280;36247;51.952;6.146;2022-10-26T02:45:42;101210.47;;;10.09;100.00
29909;BME280;36247;51.952;6.146;2022-10-26T02:48:08;101208.72;;;10.10;100.00
29909;BME280;36247;51.952;6.146;2022-10-26T02:50:57;101199.13;;;10.16;100.00
29909;BME280;36247;51.952;6.146;2022-10-26T02:53:28;101201.88;;;10.21;100.00
29909;BME280;36247;51.952;6.146;2022-10-26T02:55:57;101189.47;;;10.18;100.00
29909;BME280;36247;51.952;6.146;2022-10-26T02:58:28;101188.59;;;10.19;100.00
29909;BME280;36247;51.952;6.146;2022-10-26T03:00:55;101192.16;;;10.20;100.00
29909;BME280;36247;51.952;6.146;2022-10-26T03:03:21;101189.53;;;10.21;100.00
29909;BME280;36247;51.952;6.146;2022-10-26T03:05:48;101194.16;;;10.30;100.00
29909;BME280;36247;51.952;6.146;2022-10-26T03:08:13;101199.34;;;10.26;100.00
29909;BME280;36247;51.952;6.146;2022-10-26T03:10:42;101197.47;;;10.20;100.00
29909;BME280;36247;51.952;6.146;2022-10-26T03:13:09;101190.38;;;10.19;100.00
29909;BME280;36247;51.952;6.146;2022-10-26T03:15:35;101191.25;;;10.19;100.00
29909;BME280;36247;51.952;6.146;2022-10-26T03:18:02;101184.22;;;10.20;100.00
29909;BME280;36247;51.952;6.146;2022-10-26T03:20:28;101183.56;;;10.30;100.00
29909;BME280;36247;51.952;6.146;2022-10-26T03:22:53;101181.94;;;10.37;100.00
29909;BME280;36247;51.952;6.146;2022-10-26T03:25:22;101180.31;;;10.44;100.00
29909;BME280;36247;51.952;6.146;2022-10-26T03:27:58;101188.44;;;10.53;100.00
29909;BME280;36247;51.952;6.146;2022-10-26T03:30:25;101182.38;;;10.58;100.00
29909;BME280;36247;51.952;6.146;2022-10-26T03:32:50;101176.28;;;10.64;100.00
29909;BME280;36247;51.952;6.146;2022-10-26T03:35:16;101178.09;;;10.67;100.00
29909;BME280;36247;51.952;6.146;2022-10-26T03:37:42;101186.13;;;10.71;100.00
29909;BME280;36247;51.952;6.146;2022-10-26T03:40:10;101176.34;;;10.67;100.00
29909;BME280;36247;51.952;6.146;2022-10-26T03:42:36;101178.09;;;10.67;100.00
29909;BME280;36247;51.952;6.146;2022-10-26T03:45:02;101189.72;;;10.73;100.00
29909;BME280;36247;51.952;6.146;2022-10-26T03:47:28;101181.66;;;10.69;100.00
29909;BME280;36247;51.952;6.146;2022-10-26T03:49:54;101175.47;;;10.68;100.00
29909;BME280;36247;51.952;6.146;2022-10-26T03:52:19;101175.38;;;10.62;100.00
29909;BME280;36247;51.952;6.146;2022-10-26T03:54:45;101183.44;;;10.68;100.00
29909;BME280;36247;51.952;6.146;2022-10-26T03:57:11;101178.16;;;10.70;100.00
29909;BME280;36247;51.952;6.146;2022-10-26T03:59:36;101181.75;;;10.72;100.00
29909;BME280;36247;51.952;6.146;2022-10-26T04:02:02;101171.13;;;10.70;100.00
29909;BME280;36247;51.952;6.146;2022-10-26T04:04:28;101175.59;;;10.74;100.00
29909;BME280;36247;51.952;6.146;2022-10-26T04:06:53;101170.38;;;10.79;100.00
29909;BME280;36247;51.952;6.146;2022-10-26T04:09:19;101167.81;;;10.84;100.00
29909;BME280;36247;51.952;6.146;2022-10-26T04:11:44;101159.94;;;10.87;100.00
29909;BME280;36247;51.952;6.146;2022-10-26T04:14:10;101162.56;;;10.85;100.00
29909;BME280;36247;51.952;6.146;2022-10-26T04:16:36;101161.78;;;10.92;100.00
29909;BME280;36247;51.952;6.146;2022-10-26T04:19:02;101162.63;;;10.90;100.00
29909;BME280;36247;51.952;6.146;2022-10-26T04:21:28;101173.19;;;10.87;100.00
29909;BME280;36247;51.952;6.146;2022-10-26T04:23:53;101162.38;;;10.77;100.00
29909;BME280;36247;51.952;6.146;2022-10-26T04:26:19;101177.38;;;10.75;100.00
29909;BME280;36247;51.952;6.146;2022-10-26T04:28:45;101174.75;;;10.77;100.00
29909;BME280;36247;51.952;6.146;2022-10-26T04:31:10;101170.16;;;10.67;100.00
29909;BME280;36247;51.952;6.146;2022-10-26T04:33:36;101173.47;;;10.55;100.00
29909;BME280;36247;51.952;6.146;2022-10-26T04:36:02;101167.94;;;10.43;100.00
29909;BME280;36247;51.952;6.146;2022-10-26T04:38:28;101172.34;;;10.42;100.00
29909;BME280;36247;51.952;6.146;2022-10-26T04:40:54;101169.56;;;10.37;100.00
29909;BME280;36247;51.952;6.146;2022-10-26T04:43:20;101157.25;;;10.38;100.00
29909;BME280;36247;51.952;6.146;2022-10-26T04:45:45;101162.69;;;10.46;100.00
29909;BME280;36247;51.952;6.146;2022-10-26T04:48:12;101177.66;;;10.42;100.00
29909;BME280;36247;51.952;6.146;2022-10-26T04:50:38;101172.38;;;10.44;100.00
29909;BME280;36247;51.952;6.146;2022-10-26T04:53:08;101166.06;;;10.38;100.00
29909;BME280;36247;51.952;6.146;2022-10-26T04:55:34;101171.47;;;10.43;100.00
29909;BME280;36247;51.952;6.146;2022-10-26T04:58:00;101172.28;;;10.39;100.00
29909;BME280;36247;51.952;6.146;2022-10-26T05:00:25;101171.13;;;10.28;100.00
29909;BME280;36247;51.952;6.146;2022-10-26T05:02:57;101169.53;;;10.34;100.00
29909;BME280;36247;51.952;6.146;2022-10-26T05:05:22;101167.13;;;10.47;100.00
29909;BME280;36247;51.952;6.146;2022-10-26T05:07:55;101155.63;;;10.46;100.00
29909;BME280;36247;51.952;6.146;2022-10-26T05:10:21;101159.41;;;10.59;100.00
29909;BME280;36247;51.952;6.146;2022-10-26T05:12:53;101170.22;;;10.70;100.00
29909;BME280;36247;51.952;6.146;2022-10-26T05:15:19;101165.97;;;10.78;100.00
29909;BME280;36247;51.952;6.146;2022-10-26T05:17:46;101156.25;;;10.79;100.00
29909;BME280;36247;51.952;6.146;2022-10-26T05:20:11;101165.16;;;10.84;100.00
29909;BME280;36247;51.952;6.146;2022-10-26T05:22:40;101163.53;;;10.90;100.00
29909;BME280;36247;51.952;6.146;2022-10-26T05:25:06;101154.72;;;10.93;100.00
29909;BME280;36247;51.952;6.146;2022-10-26T05:27:32;101158.41;;;11.01;100.00
29909;BME280;36247;51.952;6.146;2022-10-26T05:29:58;101150.47;;;11.03;100.00
29909;BME280;36247;51.952;6.146;2022-10-26T05:32:23;101160.09;;;10.96;100.00
29909;BME280;36247;51.952;6.146;2022-10-26T05:34:49;101157.41;;;10.94;100.00
29909;BME280;36247;51.952;6.146;2022-10-26T05:37:15;101157.53;;;11.02;100.00
29909;BME280;36247;51.952;6.146;2022-10-26T05:39:41;101148.63;;;10.99;100.00
29909;BME280;36247;51.952;6.146;2022-10-26T05:42:07;101154.97;;;11.07;100.00
29909;BME280;36247;51.952;6.146;2022-10-26T05:44:33;101155.88;;;11.09;100.00
29909;BME280;36247;51.952;6.146;2022-10-26T05:46:59;101155.78;;;11.03;100.00
29909;BME280;36247;51.952;6.146;2022-10-26T05:49:24;101154.97;;;11.08;100.00
29909;BME280;36247;51.952;6.146;2022-10-26T05:51:50;101155.03;;;11.11;100.00
29909;BME280;36247;51.952;6.146;2022-10-26T05:54:16;101166.72;;;11.23;100.00
29909;BME280;36247;51.952;6.146;2022-10-26T05:56:42;101161.38;;;11.20;100.00
29909;BME280;36247;51.952;6.146;2022-10-26T05:59:13;101160.50;;;11.22;100.00
29909;BME280;36247;51.952;6.146;2022-10-26T06:01:43;101166.75;;;11.24;100.00
29909;BME280;36247;51.952;6.146;2022-10-26T06:04:22;101172.06;;;11.24;100.00
29909;BME280;36247;51.952;6.146;2022-10-26T06:06:52;101169.34;;;11.21;100.00
29909;BME280;36247;51.952;6.146;2022-10-26T06:09:24;101172.97;;;11.28;100.00
29909;BME280;36247;51.952;6.146;2022-10-26T06:11:50;101179.16;;;11.28;100.00
29909;BME280;36247;51.952;6.146;2022-10-26T06:14:17;101170.41;;;11.33;100.00
29909;BME280;36247;51.952;6.146;2022-10-26T06:22:55;101174.81;;;11.32;100.00
29909;BME280;36247;51.952;6.146;2022-10-26T06:30:41;101174.97;;;11.41;100.00
29909;BME280;36247;51.952;6.146;2022-10-26T06:33:09;101180.28;;;11.41;100.00
29909;BME280;36247;51.952;6.146;2022-10-26T06:38:19;101187.31;;;11.39;100.00
29909;BME280;36247;51.952;6.146;2022-10-26T06:40:48;101196.19;;;11.41;100.00
29909;BME280;36247;51.952;6.146;2022-10-26T06:43:27;101188.22;;;11.40;100.00
29909;BME280;36247;51.952;6.146;2022-10-26T06:46:21;101190.94;;;11.44;100.00
29909;BME280;36247;51.952;6.146;2022-10-26T06:51:24;101199.97;;;11.56;100.00
29909;BME280;36247;51.952;6.146;2022-10-26T06:54:01;101200.84;;;11.56;100.00
29909;BME280;36247;51.952;6.146;2022-10-26T06:56:30;101189.41;;;11.59;100.00
29909;BME280;36247;51.952;6.146;2022-10-26T06:59:01;101184.13;;;11.62;100.00
29909;BME280;36247;51.952;6.146;2022-10-26T07:01:29;101191.31;;;11.69;100.00
29909;BME280;36247;51.952;6.146;2022-10-26T07:03:54;101190.44;;;11.70;100.00
29909;BME280;36247;51.952;6.146;2022-10-26T07:06:20;101186.91;;;11.71;100.00
29909;BME280;36247;51.952;6.146;2022-10-26T07:08:45;101174.66;;;11.78;100.00
29909;BME280;36247;51.952;6.146;2022-10-26T07:11:11;101173.78;;;11.80;100.00
29909;BME280;36247;51.952;6.146;2022-10-26T07:13:37;101172.13;;;11.89;100.00
29909;BME280;36247;51.952;6.146;2022-10-26T07:16:02;101174.81;;;11.90;100.00
29909;BME280;36247;51.952;6.146;2022-10-26T07:18:28;101180.25;;;11.98;100.00
29909;BME280;36247;51.952;6.146;2022-10-26T07:20:54;101172.41;;;12.07;100.00
29909;BME280;36247;51.952;6.146;2022-10-26T07:23:19;101175.25;;;12.21;100.00
29909;BME280;36247;51.952;6.146;2022-10-26T07:25:47;101177.31;;;12.47;100.00
29909;BME280;36247;51.952;6.146;2022-10-26T07:28:13;101166.13;;;12.79;100.00
29909;BME280;36247;51.952;6.146;2022-10-26T07:30:39;101169.09;;;13.11;100.00
29909;BME280;36247;51.952;6.146;2022-10-26T07:33:10;101168.44;;;13.35;100.00
29909;BME280;36247;51.952;6.146;2022-10-26T07:35:37;101149.00;;;13.49;100.00
29909;BME280;36247;51.952;6.146;2022-10-26T07:38:06;101150.97;;;13.82;100.00
29909;BME280;36247;51.952;6.146;2022-10-26T07:40:32;101158.09;;;13.85;100.00
29909;BME280;36247;51.952;6.146;2022-10-26T07:42:59;101159.06;;;13.93;100.00
29909;BME280;36247;51.952;6.146;2022-10-26T07:45:28;101169.78;;;14.15;100.00
29909;BME280;36247;51.952;6.146;2022-10-26T07:47:54;101160.91;;;14.09;100.00
29909;BME280;36247;51.952;6.146;2022-10-26T07:50:22;101174.25;;;14.20;100.00
29909;BME280;36247;51.952;6.146;2022-10-26T07:52:49;101182.94;;;13.82;100.00
29909;BME280;36247;51.952;6.146;2022-10-26T07:55:14;101190.78;;;13.56;100.00
29909;BME280;36247;51.952;6.146;2022-10-26T07:57:40;101190.75;;;13.53;100.00
29909;BME280;36247;51.952;6.146;2022-10-26T08:00:07;101186.53;;;13.86;100.00
29909;BME280;36247;51.952;6.146;2022-10-26T08:02:34;101183.03;;;13.93;100.00
29909;BME280;36247;51.952;6.146;2022-10-26T08:05:01;101190.91;;;13.79;100.00
29909;BME280;36247;51.952;6.146;2022-10-26T08:07:27;101198.06;;;13.89;100.00
29909;BME280;36247;51.952;6.146;2022-10-26T08:09:53;101204.31;;;13.91;100.00
29909;BME280;36247;51.952;6.146;2022-10-26T08:12:18;101206.06;;;13.89;100.00
29909;BME280;36247;51.952;6.146;2022-10-26T08:14:44;101207.00;;;13.93;100.00
29909;BME280;36247;51.952;6.146;2022-10-26T08:17:10;101202.56;;;14.00;100.00
29909;BME280;36247;51.952;6.146;2022-10-26T08:19:36;101195.44;;;13.96;100.00
29909;BME280;36247;51.952;6.146;2022-10-26T08:22:02;101202.59;;;14.03;100.00
29909;BME280;36247;51.952;6.146;2022-10-26T08:24:28;101199.91;;;13.97;100.00
29909;BME280;36247;51.952;6.146;2022-10-26T08:26:54;101203.50;;;14.03;100.00
29909;BME280;36247;51.952;6.146;2022-10-26T08:29:20;101211.53;;;14.11;100.00
29909;BME280;36247;51.952;6.146;2022-10-26T08:31:46;101211.53;;;14.11;100.00
29909;BME280;36247;51.952;6.146;2022-10-26T08:34:12;101216.88;;;14.19;100.00
29909;BME280;36247;51.952;6.146;2022-10-26T08:36:38;101215.13;;;14.28;100.00
29909;BME280;36247;51.952;6.146;2022-10-26T08:39:04;101211.59;;;14.31;100.00
29909;BME280;36247;51.952;6.146;2022-10-26T08:41:44;101206.25;;;14.26;100.00
29909;BME280;36247;51.952;6.146;2022-10-26T08:44:28;101227.59;;;14.31;100.00
29909;BME280;36247;51.952;6.146;2022-10-26T08:47:00;101235.66;;;14.45;100.00
29909;BME280;36247;51.952;6.146;2022-10-26T08:49:31;101235.69;;;14.51;100.00
29909;BME280;36247;51.952;6.146;2022-10-26T08:52:01;101242.81;;;14.60;100.00
29909;BME280;36247;51.952;6.146;2022-10-26T08:54:40;101241.13;;;14.70;100.00
29909;BME280;36247;51.952;6.146;2022-10-26T08:57:20;101235.78;;;14.70;100.00
29909;BME280;36247;51.952;6.146;2022-10-26T09:00:23;101244.72;;;14.78;100.00
29909;BME280;36247;51.952;6.146;2022-10-26T09:02:41;101240.28;;;14.86;100.00
29909;BME280;36247;51.952;6.146;2022-10-26T09:05:14;101235.88;;;14.96;100.00
29909;BME280;36247;51.952;6.146;2022-10-26T09:13:41;101243.91;;;15.19;100.00
29909;BME280;36247;51.952;6.146;2022-10-26T09:21:47;101258.16;;;15.43;100.00
29909;BME280;36247;51.952;6.146;2022-10-26T09:24:24;101259.94;;;15.47;100.00
29909;BME280;36247;51.952;6.146;2022-10-26T09:29:22;101261.72;;;15.69;100.00
29909;BME280;36247;51.952;6.146;2022-10-26T09:31:50;101274.22;;;15.80;100.00
29909;BME280;36247;51.952;6.146;2022-10-26T09:34:26;101278.66;;;15.85;100.00
29909;BME280;36247;51.952;6.146;2022-10-26T09:36:54;101273.31;;;15.96;100.00
29909;BME280;36247;51.952;6.146;2022-10-26T09:39:35;101265.28;;;16.01;100.00
29909;BME280;36247;51.952;6.146;2022-10-26T09:42:15;101265.22;;;16.22;100.00
29909;BME280;36247;51.952;6.146;2022-10-26T09:44:57;101258.94;;;16.31;100.00
29909;BME280;36247;51.952;6.146;2022-10-26T09:47:36;101254.47;;;16.41;100.00
29909;BME280;36247;51.952;6.146;2022-10-26T09:52:34;101266.03;;;16.45;100.00
29909;BME280;36247;51.952;6.146;2022-10-26T09:54:59;101261.47;;;16.71;100.00
29909;BME280;36247;51.952;6.146;2022-10-26T09:57:25;101268.50;;;17.03;100.00
29909;BME280;36247;51.952;6.146;2022-10-26T09:59:52;101255.63;;;17.52;100.00
29909;BME280;36247;51.952;6.146;2022-10-26T10:02:37;101255.13;;;18.07;100.00
29909;BME280;36247;51.952;6.146;2022-10-26T10:05:27;101256.53;;;19.11;100.00
29909;BME280;36247;51.952;6.146;2022-10-26T10:08:24;101260.66;;;19.89;100.00
29909;BME280;36247;51.952;6.146;2022-10-26T10:10:56;101277.16;;;19.66;100.00
29909;BME280;36247;51.952;6.146;2022-10-26T10:13:24;101275.75;;;19.97;100.00
29909;BME280;36247;51.952;6.146;2022-10-26T10:16:04;101283.72;;;18.88;100.00
29909;BME280;36247;51.952;6.146;2022-10-26T10:18:32;101278.97;;;19.08;100.00
29909;BME280;36247;51.952;6.146;2022-10-26T10:21:00;101292.50;;;19.00;100.00
29909;BME280;36247;51.952;6.146;2022-10-26T10:23:30;101285.00;;;18.56;100.00
29909;BME280;36247;51.952;6.146;2022-10-26T10:26:08;101298.31;;;18.63;100.00
29909;BME280;36247;51.952;6.146;2022-10-26T10:28:39;101311.69;;;18.68;100.00
29909;BME280;36247;51.952;6.146;2022-10-26T10:31:19;101321.53;;;18.69;100.00
29909;BME280;36247;51.952;6.146;2022-10-26T10:33:45;101340.44;;;19.28;100.00
29909;BME280;36247;51.952;6.146;2022-10-26T10:36:16;101341.19;;;19.40;100.00
29909;BME280;36247;51.952;6.146;2022-10-26T10:38:44;101339.22;;;18.84;100.00
29909;BME280;36247;51.952;6.146;2022-10-26T10:41:32;101339.97;;;18.98;100.00
29909;BME280;36247;51.952;6.146;2022-10-26T10:44:25;101340.84;;;20.17;100.00
29909;BME280;36247;51.952;6.146;2022-10-26T10:47:04;101338.22;;;20.14;100.00
29909;BME280;36247;51.952;6.146;2022-10-26T10:49:32;101338.50;;;20.47;100.00
29909;BME280;36247;51.952;6.146;2022-10-26T10:51:58;101336.38;;;20.65;100.00
29909;BME280;36247;51.952;6.146;2022-10-26T10:54:36;101340.06;;;20.59;100.00
29909;BME280;36247;51.952;6.146;2022-10-26T11:02:47;101342.09;;;20.46;100.00
29909;BME280;36247;51.952;6.146;2022-10-26T11:10:48;101353.41;;;20.18;100.00
29909;BME280;36247;51.952;6.146;2022-10-26T11:13:35;101339.91;;;20.68;100.00
29909;BME280;36247;51.952;6.146;2022-10-26T11:16:22;101365.38;;;20.49;100.00
29909;BME280;36247;51.952;6.146;2022-10-26T11:18:53;101368.19;;;19.91;100.00
29909;BME280;36247;51.952;6.146;2022-10-26T11:21:29;101365.50;;;20.42;100.00
29909;BME280;36247;51.952;6.146;2022-10-26T11:24:03;101358.22;;;20.48;100.00
29909;BME280;36247;51.952;6.146;2022-10-26T11:31:46;101369.72;;;20.06;100.00
29909;BME280;36247;51.952;6.146;2022-10-26T11:34:43;101366.88;;;21.49;100.00
29909;BME280;36247;51.952;6.146;2022-10-26T11:37:34;101373.06;;;20.70;100.00
29909;BME280;36247;51.952;6.146;2022-10-26T11:43:07;101379.66;;;21.41;100.00
29909;BME280;36247;51.952;6.146;2022-10-26T11:45:44;101377.44;;;21.98;100.00
29909;BME280;36247;51.952;6.146;2022-10-26T11:49:12;101380.97;;;21.64;100.00
29909;BME280;36247;51.952;6.146;2022-10-26T11:54:27;101371.59;;;20.99;100.00
29909;BME280;36247;51.952;6.146;2022-10-26T11:56:56;101378.75;;;20.53;100.00
29909;BME280;36247;51.952;6.146;2022-10-26T11:59:29;101387.31;;;20.25;100.00
29909;BME280;36247;51.952;6.146;2022-10-26T12:02:03;101394.13;;;20.45;100.00
29909;BME280;36247;51.952;6.146;2022-10-26T12:04:32;101392.19;;;20.02;100.00
29909;BME280;36247;51.952;6.146;2022-10-26T12:07:19;101390.94;;;19.67;100.00
29909;BME280;36247;51.952;6.146;2022-10-26T12:09:46;101407.22;;;19.58;100.00
29909;BME280;36247;51.952;6.146;2022-10-26T12:12:39;101394.34;;;19.81;100.00
29909;BME280;36247;51.952;6.146;2022-10-26T12:15:38;101407.63;;;19.27;100.00
29909;BME280;36247;51.952;6.146;2022-10-26T12:21:00;101425.56;;;19.25;100.00
29909;BME280;36247;51.952;6.146;2022-10-26T12:23:32;101427.22;;;19.36;100.00
29909;BME280;36247;51.952;6.146;2022-10-26T12:34:10;101416.03;;;19.66;100.00
29909;BME280;36247;51.952;6.146;2022-10-26T12:39:30;101414.97;;;19.79;100.00
29909;BME280;36247;51.952;6.146;2022-10-26T12:41:58;101420.38;;;19.78;100.00
29909;BME280;36247;51.952;6.146;2022-10-26T12:58:26;101430.06;;;19.88;100.00
29909;BME280;36247;51.952;6.146;2022-10-26T13:06:15;101444.78;;;20.23;100.00
29909;BME280;36247;51.952;6.146;2022-10-26T13:08:49;101440.44;;;20.67;100.00
29909;BME280;36247;51.952;6.146;2022-10-26T13:11:27;101443.13;;;20.14;100.00
29909;BME280;36247;51.952;6.146;2022-10-26T13:13:56;101449.16;;;20.27;100.00
29909;BME280;36247;51.952;6.146;2022-10-26T13:16:25;101448.41;;;20.19;100.00
29909;BME280;36247;51.952;6.146;2022-10-26T13:18:52;101459.03;;;20.28;100.00
29909;BME280;36247;51.952;6.146;2022-10-26T13:21:19;101458.44;;;20.09;100.00
29909;BME280;36247;51.952;6.146;2022-10-26T13:26:19;101451.25;;;20.63;100.00
29909;BME280;36247;51.952;6.146;2022-10-26T13:28:48;101461.28;;;20.54;100.00
29909;BME280;36247;51.952;6.146;2022-10-26T13:39:19;101452.94;;;22.71;100.00
29909;BME280;36247;51.952;6.146;2022-10-26T13:41:49;101454.88;;;23.32;100.00
29909;BME280;36247;51.952;6.146;2022-10-26T13:44:29;101452.91;;;23.37;100.00
29909;BME280;36247;51.952;6.146;2022-10-26T13:47:01;101453.88;;;23.02;100.00
29909;BME280;36247;51.952;6.146;2022-10-26T13:49:32;101466.56;;;23.92;100.00
29909;BME280;36247;51.952;6.146;2022-10-26T13:52:02;101463.34;;;23.20;100.00
29909;BME280;36247;51.952;6.146;2022-10-26T13:54:46;101457.81;;;22.92;100.00
29909;BME280;36247;51.952;6.146;2022-10-26T13:59:45;101462.75;;;24.00;100.00
29909;BME280;36247;51.952;6.146;2022-10-26T14:02:28;101455.75;;;23.33;100.00
29909;BME280;36247;51.952;6.146;2022-10-26T14:05:04;101465.34;;;22.79;100.00
29909;BME280;36247;51.952;6.146;2022-10-26T14:07:44;101466.84;;;23.53;100.00
29909;BME280;36247;51.952;6.146;2022-10-26T14:12:55;101473.19;;;22.88;100.00
29909;BME280;36247;51.952;6.146;2022-10-26T14:15:26;101467.81;;;23.51;100.00
29909;BME280;36247;51.952;6.146;2022-10-26T14:17:55;101480.44;;;24.10;100.00
29909;BME280;36247;51.952;6.146;2022-10-26T14:20:25;101478.91;;;24.56;100.00
29909;BME280;36247;51.952;6.146;2022-10-26T14:22:52;101477.44;;;24.46;100.00
29909;BME280;36247;51.952;6.146;2022-10-26T14:25:23;101468.34;;;23.93;100.00
29909;BME280;36247;51.952;6.146;2022-10-26T14:27:50;101469.47;;;23.86;100.00
29909;BME280;36247;51.952;6.146;2022-10-26T14:30:30;101482.47;;;24.03;100.00
29909;BME280;36247;51.952;6.146;2022-10-26T14:32:57;101488.31;;;22.95;100.00
29909;BME280;36247;51.952;6.146;2022-10-26T14:35:26;101490.78;;;22.70;100.00
29909;BME280;36247;51.952;6.146;2022-10-26T14:37:59;101500.19;;;22.55;100.00
29909;BME280;36247;51.952;6.146;2022-10-26T14:40:29;101503.13;;;22.80;100.00
29909;BME280;36247;51.952;6.146;2022-10-26T14:42:57;101499.88;;;22.30;100.00
29909;BME280;36247;51.952;6.146;2022-10-26T14:47:59;101508.44;;;22.49;100.00
29909;BME280;36247;51.952;6.146;2022-10-26T14:50:26;101513.25;;;21.97;100.00
29909;BME280;36247;51.952;6.146;2022-10-26T14:52:58;101517.41;;;22.12;100.00
29909;BME280;36247;51.952;6.146;2022-10-26T14:55:25;101517.34;;;22.13;100.00
29909;BME280;36247;51.952;6.146;2022-10-26T14:58:05;101523.41;;;21.86;100.00
29909;BME280;36247;51.952;6.146;2022-10-26T15:00:32;101533.22;;;21.44;100.00
29909;BME280;36247;51.952;6.146;2022-10-26T15:02:59;101533.06;;;21.54;100.00
29909;BME280;36247;51.952;6.146;2022-10-26T15:05:29;101544.56;;;21.15;100.00
29909;BME280;36247;51.952;6.146;2022-10-26T15:07:58;101555.03;;;20.82;100.00
29909;BME280;36247;51.952;6.146;2022-10-26T15:15:53;101558.47;;;20.36;100.00
29909;BME280;36247;51.952;6.146;2022-10-26T15:18:23;101563.25;;;20.15;100.00
29909;BME280;36247;51.952;6.146;2022-10-26T15:20:54;101561.78;;;20.53;100.00